Time;durP1;ratioP1;P1;durP2;ratioP2;P2;SDS_P1;SDS_P2;PMS_P1;PMS_P2;Temp;Humidity;BMP_temperature;BMP_pressure;BME280_temperature;BME280_humidity;BME280_pressure;Samples;Min_cycle;Max_cycle;Signal;HPM_P1;HPM_P2
2022/09/16 00:02:10;;;;;;;8.43;3.17;;;;;;;-141.28;100.00;49814.03;5081692;28;20227;-75
2022/09/16 00:04:37;;;;;;;8.40;2.77;;;;;;;-141.28;100.00;49772.81;5079963;28;20720;-75
2022/09/16 00:07:04;;;;;;;8.67;2.90;;;;;;;-141.28;100.00;49804.22;5073357;28;20208;-74
2022/09/16 00:09:31;;;;;;;6.77;2.50;;;;;;;-141.28;100.00;49821.88;5087805;28;20651;-76
2022/09/16 00:11:58;;;;;;;12.43;2.90;;;;;;;-141.28;100.00;49855.25;5082986;28;20203;-77
2022/09/16 00:14:27;;;;;;;7.07;3.10;;;;;;;-141.28;100.00;49855.25;5102137;28;20203;-78
2022/09/16 00:16:54;;;;;;;10.27;3.20;;;;;;;-141.28;100.00;49910.19;5078716;28;20196;-76
2022/09/16 00:19:21;;;;;;;9.83;2.97;;;;;;;-141.28;100.00;49902.34;5082814;28;20195;-75
2022/09/16 00:21:49;;;;;;;6.87;2.70;;;;;;;-141.28;100.00;49927.88;5091586;28;20219;-75
2022/09/16 00:24:17;;;;;;;7.37;2.53;;;;;;;-141.28;100.00;49894.50;5078756;28;20244;-75
2022/09/16 00:26:44;;;;;;;9.40;2.53;;;;;;;-141.28;100.00;49935.72;5095334;28;20199;-75
2022/09/16 00:29:11;;;;;;;8.80;3.73;;;;;;;-141.28;100.00;49880.75;5098164;28;20273;-77
2022/09/16 00:31:40;;;;;;;8.63;3.77;;;;;;;-141.28;100.00;49886.66;5109236;28;20198;-74
2022/09/16 00:34:07;;;;;;;14.60;4.50;;;;;;;-141.28;100.00;49870.94;5112131;28;20194;-75
2022/09/16 00:36:35;;;;;;;7.77;3.03;;;;;;;-141.28;100.00;49886.66;5079401;28;20195;-74
2022/09/16 00:39:03;;;;;;;7.13;3.00;;;;;;;-141.28;100.00;49817.97;5090205;28;20669;-75
2022/09/16 00:41:32;;;;;;;6.03;3.07;;;;;;;-141.28;100.00;49878.81;5071743;28;20687;-75
2022/09/16 00:44:00;;;;;;;9.77;3.23;;;;;;;-141.28;100.00;49806.19;5072063;28;20281;-76
2022/09/16 00:46:35;;;;;;;9.67;3.20;;;;;;;-141.28;100.00;49778.72;5080767;28;20344;-76
2022/09/16 00:49:10;;;;;;;13.63;3.10;;;;;;;-141.28;100.00;49855.25;5081838;28;20195;-76
2022/09/16 00:51:39;;;;;;;7.60;2.83;;;;;;;-141.28;100.00;49812.06;5106296;28;20198;-75
2022/09/16 00:54:09;;;;;;;15.97;2.50;;;;;;;-141.28;100.00;49721.81;5104075;28;20191;-77
2022/09/16 00:56:41;;;;;;;14.97;3.20;;;;;;;-141.28;100.00;49761.06;5077912;28;20288;-74
2022/09/16 00:59:11;;;;;;;6.60;2.77;;;;;;;-141.28;100.00;49831.69;5091212;28;20201;-76
2022/09/16 01:01:41;;;;;;;13.07;3.00;;;;;;;-141.28;100.00;49902.34;5097068;28;21710;-75
2022/09/16 01:04:15;;;;;;;5.87;2.50;;;;;;;-141.28;100.00;49855.25;5105884;28;20278;-75
2022/09/16 01:06:43;;;;;;;7.10;3.10;;;;;;;-141.28;100.00;49882.72;5099356;28;20190;-75
2022/09/16 01:09:10;;;;;;;9.30;2.70;;;;;;;-141.28;100.00;49874.88;5115748;28;20198;-74
2022/09/16 01:11:37;;;;;;;8.23;2.87;;;;;;;-141.28;100.00;49816.00;5110213;28;20206;-76
2022/09/16 01:16:58;;;;;;;10.47;3.00;;;;;;;-141.28;100.00;49839.56;5076149;28;20681;-75
2022/09/16 01:19:42;;;;;;;15.07;3.40;;;;;;;-141.28;100.00;49819.94;5089066;28;20552;-74
2022/09/16 01:22:21;;;;;;;8.27;3.20;;;;;;;-141.28;100.00;49827.78;5075437;28;20297;-75
2022/09/16 01:25:00;;;;;;;12.53;3.03;;;;;;;-141.28;100.00;49768.91;5075214;28;20257;-75
2022/09/16 01:27:52;;;;;;;8.07;2.67;;;;;;;-141.28;100.00;49816.00;5092663;28;20281;-74
2022/09/16 01:30:48;;;;;;;5.90;2.70;;;;;;;-141.28;100.00;49851.31;5111779;28;20661;-76
2022/09/16 01:33:27;;;;;;;8.43;2.40;;;;;;;-141.28;100.00;49874.88;5085859;28;20198;-75
2022/09/16 01:36:09;;;;;;;8.73;3.47;;;;;;;-141.28;100.00;49796.38;5107362;28;20202;-76
2022/09/16 01:39:01;;;;;;;6.70;2.80;;;;;;;-141.28;100.00;49845.44;5094441;28;20302;-75
2022/09/16 01:41:36;;;;;;;5.53;2.50;;;;;;;-141.28;100.00;49796.38;5094197;28;20242;-75
2022/09/16 01:44:09;;;;;;;8.37;2.63;;;;;;;-141.28;100.00;49823.84;5095354;28;20260;-77
2022/09/16 01:46:45;;;;;;;6.10;2.53;;;;;;;-141.28;100.00;49757.13;5076872;28;20216;-74
2022/09/16 01:49:20;;;;;;;11.60;2.90;;;;;;;-141.28;100.00;49755.16;5099545;28;20209;-75
2022/09/16 01:51:52;;;;;;;7.67;2.70;;;;;;;-141.28;100.00;49725.72;5063314;28;20264;-75
2022/09/16 01:54:27;;;;;;;8.57;2.50;;;;;;;-141.28;100.00;49733.56;5095737;28;20204;-77
2022/09/16 01:57:00;;;;;;;8.50;2.93;;;;;;;-141.28;100.00;49690.41;5105774;28;20286;-74
2022/09/16 01:59:36;;;;;;;7.67;2.87;;;;;;;-141.28;100.00;49655.09;5100316;28;20192;-74
2022/09/16 02:02:10;;;;;;;4.10;2.33;;;;;;;-141.28;100.00;49706.09;5075878;28;20216;-76
2022/09/16 02:04:43;;;;;;;11.33;2.90;;;;;;;-141.28;100.00;49686.47;5087215;28;20235;-75
2022/09/16 02:07:13;;;;;;;9.00;2.87;;;;;;;-141.28;100.00;49717.88;5087971;28;20195;-75
2022/09/16 02:09:46;;;;;;;7.77;2.50;;;;;;;-141.28;100.00;49796.38;5112984;28;20259;-76
2022/09/16 02:12:19;;;;;;;8.33;2.80;;;;;;;-141.28;100.00;49941.59;5083034;28;20191;-74
2022/09/16 02:14:49;;;;;;;11.53;2.63;;;;;;;-141.28;100.00;49884.69;5092831;28;20550;-75
2022/09/16 02:17:23;;;;;;;9.37;2.40;;;;;;;-141.28;100.00;49859.19;5083056;28;20199;-75
2022/09/16 02:19:58;;;;;;;14.00;2.70;;;;;;;-141.28;100.00;49910.19;5110186;28;20225;-77
2022/09/16 02:22:32;;;;;;;7.80;2.63;;;;;;;-141.28;100.00;49890.56;5114654;28;20217;-76
2022/09/16 02:25:01;;;;;;;13.47;3.23;;;;;;;-141.28;100.00;49927.88;5095111;28;20226;-75
2022/09/16 02:27:31;;;;;;;9.13;3.07;;;;;;;-141.28;100.00;49882.72;5081115;28;20204;-75
2022/09/16 02:30:05;;;;;;;8.17;2.90;;;;;;;-141.28;100.00;49843.47;5095364;28;20199;-72
2022/09/16 02:32:40;;;;;;;10.73;3.40;;;;;;;-141.28;100.00;49855.25;5115640;28;20673;-75
2022/09/16 02:35:10;;;;;;;16.40;3.13;;;;;;;-141.28;100.00;49814.03;5114084;28;20186;-76
2022/09/16 02:37:41;;;;;;;7.10;3.30;;;;;;;-141.28;100.00;49823.84;5113995;28;20536;-75
2022/09/16 02:40:16;;;;;;;9.70;3.50;;;;;;;-141.28;100.00;49816.00;5122013;28;20202;-77
2022/09/16 02:42:43;;;;;;;12.23;3.57;;;;;;;-141.28;100.00;49743.38;5113783;28;20597;-75
2022/09/16 02:45:13;;;;;;;10.70;3.20;;;;;;;-141.28;100.00;49784.59;5113523;28;20228;-74
2022/09/16 02:47:52;;;;;;;11.07;3.63;;;;;;;-141.28;100.00;49745.34;5106825;28;20635;-77
2022/09/16 02:50:28;;;;;;;16.80;3.23;;;;;;;-141.28;100.00;49704.13;5107556;28;20266;-78
2022/09/16 02:52:59;;;;;;;12.53;3.27;;;;;;;-141.28;100.00;49747.31;5113960;28;20194;-76
2022/09/16 02:55:37;;;;;;;11.53;2.73;;;;;;;-141.28;100.00;49757.13;5095595;28;20287;-75
2022/09/16 02:58:06;;;;;;;10.80;2.80;;;;;;;-141.28;100.00;49753.19;5080454;28;20639;-74
2022/09/16 03:00:37;;;;;;;9.60;2.70;;;;;;;-141.28;100.00;49735.53;5080520;28;20316;-76
2022/09/16 03:03:06;;;;;;;10.40;3.10;;;;;;;-141.28;100.00;49757.13;5093615;28;20223;-76
2022/09/16 03:05:34;;;;;;;10.77;3.33;;;;;;;-141.28;100.00;49763.00;5100996;28;20326;-74
2022/09/16 03:08:03;;;;;;;16.33;3.37;;;;;;;-141.28;100.00;49651.16;5110344;28;20278;-75
2022/09/16 03:10:45;;;;;;;9.43;3.47;;;;;;;-141.28;100.00;49639.38;5101378;28;20277;-77
2022/09/16 03:13:20;;;;;;;8.90;3.27;;;;;;;-141.28;100.00;49600.13;5099405;28;20234;-76
2022/09/16 03:15:59;;;;;;;11.80;3.53;;;;;;;-141.28;100.00;49694.31;5103839;28;20203;-77
2022/09/16 03:18:57;;;;;;;9.03;3.10;;;;;;;-141.28;100.00;49666.84;5061640;28;20199;-77
2022/09/16 03:21:30;;;;;;;13.67;3.20;;;;;;;-141.28;100.00;49604.06;5092602;28;20239;-75
2022/09/16 03:24:06;;;;;;;12.77;3.50;;;;;;;-141.28;100.00;49580.50;5101603;28;20305;-75
2022/09/16 03:26:39;;;;;;;15.43;3.33;;;;;;;-141.28;100.00;49568.75;5078830;28;20199;-76
2022/09/16 03:29:16;;;;;;;14.20;3.90;;;;;;;-141.28;100.00;49576.59;5073614;28;20204;-76
2022/09/16 03:31:54;;;;;;;9.97;3.40;;;;;;;-141.28;100.00;49553.03;5073816;28;20567;-77
2022/09/16 03:34:29;;;;;;;16.70;3.20;;;;;;;-141.28;100.00;49074.25;5073896;28;20219;-77
2022/09/16 03:37:01;;;;;;;14.83;3.93;;;;;;;-141.28;100.00;49060.53;5082583;28;20190;-77
2022/09/16 03:39:28;;;;;;;8.27;3.40;;;;;;;-141.28;100.00;49137.06;5076831;28;20196;-75
2022/09/16 03:42:00;;;;;;;13.37;4.10;;;;;;;-141.28;100.00;49205.72;5072436;28;20211;-75
2022/09/16 03:44:32;;;;;;;14.70;4.10;;;;;;;-141.28;100.00;49276.38;5074648;28;20203;-75
2022/09/16 03:47:01;;;;;;;12.13;4.03;;;;;;;-141.28;100.00;49168.44;5073435;28;20224;-77
2022/09/16 03:49:30;;;;;;;24.33;8.53;;;;;;;-141.28;100.00;49117.44;5074490;28;20250;-75
2022/09/16 03:52:00;;;;;;;16.57;6.10;;;;;;;-141.28;100.00;49015.41;5073587;28;20654;-77
2022/09/16 03:54:27;;;;;;;20.67;4.57;;;;;;;-141.28;100.00;49011.47;5080482;28;20206;-75
2022/09/16 03:56:54;;;;;;;15.00;4.00;;;;;;;-141.28;100.00;49035.03;5062999;28;20195;-76
2022/09/16 03:59:22;;;;;;;8.87;3.50;;;;;;;-141.28;100.00;49113.50;5086972;28;20192;-75
2022/09/16 04:01:50;;;;;;;13.07;3.50;;;;;;;-141.28;100.00;49101.72;5074636;28;20249;-75
2022/09/16 04:04:17;;;;;;;9.60;3.97;;;;;;;-141.28;100.00;49192.00;5093021;28;20202;-75
2022/09/16 04:06:45;;;;;;;14.03;3.60;;;;;;;-141.28;100.00;49219.47;5080758;28;20207;-76
2022/09/16 04:09:15;;;;;;;10.70;3.63;;;;;;;-141.28;100.00;49203.75;5085375;28;20258;-75
2022/09/16 04:11:44;;;;;;;11.23;3.40;;;;;;;-141.28;100.00;49248.88;5074184;28;20682;-76
2022/09/16 04:14:11;;;;;;;10.70;3.60;;;;;;;-141.28;100.00;49270.47;5081893;28;20609;-75
2022/09/16 04:16:38;;;;;;;15.77;4.10;;;;;;;-141.28;100.00;49313.66;5105213;28;20195;-75
2022/09/16 04:19:06;;;;;;;9.57;3.67;;;;;;;-141.28;100.00;49352.88;5082327;28;20647;-76
2022/09/16 04:21:33;;;;;;;12.47;4.30;;;;;;;-141.28;100.00;49423.53;5076171;28;20195;-75
2022/09/16 04:24:04;;;;;;;11.70;4.53;;;;;;;-141.28;100.00;49415.69;5081365;28;20235;-75
2022/09/16 04:26:31;;;;;;;16.00;3.80;;;;;;;-141.28;100.00;49415.69;5103562;28;20199;-75
2022/09/16 04:28:58;;;;;;;14.00;4.50;;;;;;;-141.28;100.00;49337.19;5092826;28;20195;-76
2022/09/16 04:31:25;;;;;;;12.33;3.90;;;;;;;-141.28;100.00;49286.16;5111729;28;20202;-74
2022/09/16 04:33:52;;;;;;;17.20;4.27;;;;;;;-141.28;100.00;49246.94;5105293;28;20198;-76
2022/09/16 04:36:20;;;;;;;11.17;3.63;;;;;;;-141.28;100.00;49207.69;5093659;28;20275;-74
2022/09/16 04:38:48;;;;;;;12.63;3.80;;;;;;;-141.28;100.00;49137.06;5100527;28;20279;-76
2022/09/16 04:41:18;;;;;;;14.80;3.77;;;;;;;-141.28;100.00;49137.06;5094263;28;20191;-75
2022/09/16 04:43:46;;;;;;;14.43;3.60;;;;;;;-141.28;100.00;49148.81;5091671;28;20411;-76
2022/09/16 04:46:13;;;;;;;11.73;3.97;;;;;;;-141.28;100.00;49488.28;5087328;28;20220;-75
2022/09/16 04:48:42;;;;;;;17.20;4.07;;;;;;;-141.28;100.00;49572.66;5093525;28;20202;-76
2022/09/16 04:51:11;;;;;;;16.60;4.23;;;;;;;-141.28;100.00;49582.47;5091051;28;20195;-77
2022/09/16 04:53:39;;;;;;;25.77;5.40;;;;;;;-141.28;100.00;49602.09;5088612;28;20249;-75
2022/09/16 04:56:08;;;;;;;21.23;4.90;;;;;;;-141.28;100.00;49527.53;5109594;28;20228;-77
2022/09/16 04:58:37;;;;;;;20.60;4.90;;;;;;;-141.28;100.00;49647.22;5098046;28;20203;-76
2022/09/16 05:01:06;;;;;;;27.07;5.20;;;;;;;-141.28;100.00;49678.63;5073072;28;20507;-74
2022/09/16 05:03:32;;;;;;;27.23;6.17;;;;;;;-141.28;100.00;49764.97;5083078;28;20238;-76
2022/09/16 05:06:06;;;;;;;25.13;5.43;;;;;;;-141.28;100.00;49816.00;5072794;28;20247;-76
2022/09/16 05:08:34;;;;;;;14.37;4.73;;;;;;;-141.28;100.00;49855.25;5071803;28;20192;-75
2022/09/16 05:11:06;;;;;;;18.47;4.47;;;;;;;-141.28;100.00;49939.63;5071534;28;20265;-75
2022/09/16 05:13:33;;;;;;;15.63;4.37;;;;;;;-141.28;100.00;49976.94;5093569;28;20641;-75
2022/09/16 05:16:08;;;;;;;11.13;3.53;;;;;;;-141.28;100.00;49957.31;5099523;28;20249;-76
2022/09/16 05:18:36;;;;;;;15.27;4.30;;;;;;;-141.28;100.00;49965.16;5102960;28;20191;-78
2022/09/16 05:21:07;;;;;;;11.00;4.10;;;;;;;-141.28;100.00;49943.56;5069411;28;20636;-74
2022/09/16 05:23:34;;;;;;;13.73;3.87;;;;;;;-141.28;100.00;49969.06;5089789;28;20215;-76
2022/09/16 05:26:04;;;;;;;10.90;3.57;;;;;;;-141.28;100.00;50008.34;5100518;28;20195;-75
2022/09/16 05:28:32;;;;;;;16.47;3.77;;;;;;;-141.28;100.00;49996.56;5110289;28;20230;-75
2022/09/16 05:31:11;;;;;;;15.40;3.70;;;;;;;-141.28;100.00;50006.38;5079266;28;20261;-75
2022/09/16 05:33:39;;;;;;;13.37;3.57;;;;;;;-141.28;100.00;49929.81;5101568;28;20662;-75
2022/09/16 05:36:09;;;;;;;13.03;3.60;;;;;;;-141.28;100.00;49937.69;5106272;28;20202;-74
2022/09/16 05:38:36;;;;;;;11.40;3.67;;;;;;;-141.28;100.00;49890.56;5100938;28;20204;-76
2022/09/16 05:41:04;;;;;;;11.27;3.57;;;;;;;-141.28;100.00;49745.34;5094162;28;20195;-75
2022/09/16 05:43:33;;;;;;;10.50;4.20;;;;;;;-141.28;100.00;49627.59;5111152;28;20313;-75
2022/09/16 05:46:00;;;;;;;15.57;3.73;;;;;;;-141.28;100.00;49564.81;5105201;28;20201;-76
2022/09/16 05:48:29;;;;;;;12.23;3.63;;;;;;;-141.28;100.00;49454.94;5081993;28;20193;-77
2022/09/16 05:50:58;;;;;;;10.67;3.37;;;;;;;-141.28;100.00;49317.56;5107293;28;20197;-75
2022/09/16 05:53:26;;;;;;;16.77;3.43;;;;;;;-141.28;100.00;49280.28;5094833;28;20196;-76
2022/09/16 05:55:57;;;;;;;12.13;3.50;;;;;;;-141.28;100.00;49264.59;5087844;28;20217;-76
2022/09/16 05:58:25;;;;;;;12.73;2.80;;;;;;;-141.28;100.00;49172.38;5089935;28;20208;-75
2022/09/16 06:00:53;;;;;;;16.57;3.57;;;;;;;-141.28;100.00;49144.91;5087308;28;20252;-76
2022/09/16 06:03:22;;;;;;;11.37;2.63;;;;;;;-141.28;100.00;49137.06;5075539;28;20235;-75
2022/09/16 06:05:52;;;;;;;8.67;2.83;;;;;;;-141.28;100.00;49066.41;5073851;28;20235;-75
2022/09/16 06:08:19;;;;;;;12.57;3.30;;;;;;;-141.28;100.00;49070.34;5076793;28;20218;-76
2022/09/16 06:10:47;;;;;;;30.10;5.13;;;;;;;-141.28;100.00;49070.34;5084734;28;20666;-76
2022/09/16 06:13:14;;;;;;;22.63;5.27;;;;;;;-141.28;100.00;49007.56;5088820;28;20207;-75
2022/09/16 06:15:48;;;;;;;15.70;3.73;;;;;;;-141.28;100.00;49001.66;5093974;28;20199;-77
2022/09/16 06:18:16;;;;;;;10.20;3.67;;;;;;;-141.28;100.00;48889.84;5093187;28;20199;-76
2022/09/16 06:20:42;;;;;;;10.00;3.23;;;;;;;-141.28;100.00;48968.31;5082200;28;20220;-74
2022/09/16 06:23:11;;;;;;;18.93;3.40;;;;;;;-141.28;100.00;48936.91;5084207;28;20655;-75
2022/09/16 06:25:38;;;;;;;13.83;3.00;;;;;;;-141.28;100.00;48854.53;5095608;28;20245;-76
2022/09/16 06:28:05;;;;;;;11.47;3.30;;;;;;;-141.28;100.00;48929.06;5081494;28;20633;-75
2022/09/16 06:30:32;;;;;;;13.93;3.33;;;;;;;-141.28;100.00;48972.25;5093909;28;20235;-76
2022/09/16 06:33:01;;;;;;;9.60;3.70;;;;;;;-141.28;100.00;49021.28;5095291;28;20258;-75
2022/09/16 06:35:30;;;;;;;10.10;2.80;;;;;;;-141.28;100.00;49038.94;5089994;28;20199;-76
2022/09/16 06:37:59;;;;;;;6.80;2.70;;;;;;;-141.28;100.00;48964.38;5099413;28;20195;-76
2022/09/16 06:40:28;;;;;;;8.57;2.90;;;;;;;-141.28;100.00;49082.13;5113215;28;20578;-76
2022/09/16 06:42:56;;;;;;;11.97;3.27;;;;;;;-141.28;100.00;49082.13;5112692;28;20228;-76
2022/09/16 06:45:23;;;;;;;13.40;2.40;;;;;;;-141.28;100.00;49125.28;5113101;28;20195;-75
2022/09/16 06:47:50;;;;;;;15.33;3.20;;;;;;;-141.28;100.00;49156.66;5113132;28;20679;-76
2022/09/16 06:50:17;;;;;;;10.07;2.53;;;;;;;-141.28;100.00;49162.56;5113497;28;20199;-76
2022/09/16 06:52:44;;;;;;;9.63;2.73;;;;;;;-141.28;100.00;49140.97;5113770;28;20611;-74
2022/09/16 06:55:11;;;;;;;14.90;3.40;;;;;;;-141.28;100.00;49080.16;5103589;28;20200;-76
2022/09/16 06:57:40;;;;;;;10.13;3.37;;;;;;;-141.28;100.00;48995.78;5108281;28;20228;-76
2022/09/16 07:00:08;;;;;;;15.17;4.63;;;;;;;-141.28;100.00;49033.06;5112857;28;20198;-77
2022/09/16 07:02:36;;;;;;;12.60;3.43;;;;;;;-141.28;100.00;49048.75;5112948;28;20198;-77
2022/09/16 07:05:04;;;;;;;16.67;3.87;;;;;;;-141.28;100.00;49040.91;5102415;28;20258;-75
2022/09/16 07:07:35;;;;;;;14.93;3.70;;;;;;;-141.28;100.00;49007.56;5080372;28;20248;-77
2022/09/16 07:10:02;;;;;;;12.43;3.43;;;;;;;-141.28;100.00;48978.13;5063361;28;20662;-76
2022/09/16 07:12:29;;;;;;;12.07;3.03;;;;;;;-141.28;100.00;48999.72;5091930;28;20569;-74
2022/09/16 07:14:59;;;;;;;13.13;3.00;;;;;;;-141.28;100.00;48940.84;5093445;28;20196;-77
2022/09/16 07:17:28;;;;;;;9.80;2.73;;;;;;;-141.28;100.00;48933.00;5093332;28;20200;-76
2022/09/16 07:19:57;;;;;;;10.63;2.80;;;;;;;-141.28;100.00;48923.19;5092911;28;20227;-75
2022/09/16 07:22:25;;;;;;;7.20;2.83;;;;;;;-141.28;100.00;48913.38;5093104;28;20200;-75
2022/09/16 07:24:53;;;;;;;14.47;3.13;;;;;;;-141.28;100.00;48936.91;5110575;28;20304;-76
2022/09/16 07:27:20;;;;;;;12.03;3.27;;;;;;;-141.28;100.00;48934.97;5100883;28;20289;-75
2022/09/16 07:29:48;;;;;;;10.83;2.97;;;;;;;-141.28;100.00;48905.53;5108884;28;20195;-76
2022/09/16 07:32:17;;;;;;;14.97;3.33;;;;;;;-141.28;100.00;48903.56;5112153;28;20192;-76
2022/09/16 07:34:44;;;;;;;8.30;3.53;;;;;;;-141.28;100.00;48885.91;5091570;28;20666;-74
2022/09/16 07:37:12;;;;;;;11.40;3.00;;;;;;;-141.28;100.00;48834.91;5104682;28;20299;-77
2022/09/16 07:39:39;;;;;;;11.53;2.83;;;;;;;-141.28;100.00;48860.41;5091464;28;20287;-76
2022/09/16 07:42:06;;;;;;;10.80;3.23;;;;;;;-141.28;100.00;48913.38;5092411;28;20203;-77
2022/09/16 07:44:34;;;;;;;11.60;2.67;;;;;;;-141.28;100.00;48846.69;5072157;28;20229;-76
2022/09/16 07:47:01;;;;;;;9.17;2.73;;;;;;;-141.28;100.00;48807.44;5098729;28;20225;-77
2022/09/16 07:49:30;;;;;;;12.37;3.20;;;;;;;-141.28;100.00;48799.59;5084953;28;20192;-78
2022/09/16 07:51:57;;;;;;;10.33;3.27;;;;;;;-141.28;100.00;48819.22;5084048;28;20205;-78
2022/09/16 07:54:23;;;;;;;10.50;3.00;;;;;;;-141.28;100.00;48844.72;5073715;28;20207;-77
2022/09/16 07:56:51;;;;;;;13.87;3.30;;;;;;;-141.28;100.00;48819.22;5084041;28;20279;-77
2022/09/16 07:59:20;;;;;;;13.83;3.03;;;;;;;-141.28;100.00;48830.97;5073805;28;20195;-77
2022/09/16 08:01:49;;;;;;;14.23;3.00;;;;;;;-141.28;100.00;48811.34;5100784;28;20200;-76
2022/09/16 08:04:17;;;;;;;10.07;3.17;;;;;;;-141.28;100.00;48791.75;5092531;28;20708;-74
2022/09/16 08:06:45;;;;;;;10.03;2.80;;;;;;;-141.28;100.00;48811.34;5072612;28;20572;-76
2022/09/16 08:09:14;;;;;;;15.30;2.87;;;;;;;-141.28;100.00;48778.00;5089667;28;20203;-77
2022/09/16 08:11:41;;;;;;;9.27;3.20;;;;;;;-141.28;100.00;48772.13;5084915;28;20205;-76
2022/09/16 08:14:08;;;;;;;9.87;3.10;;;;;;;-141.28;100.00;48807.44;5092077;28;20202;-76
2022/09/16 08:16:37;;;;;;;15.63;3.83;;;;;;;-141.28;100.00;48785.84;5078247;28;20206;-74
2022/09/16 08:19:08;;;;;;;15.33;3.20;;;;;;;-141.28;100.00;48774.09;5095009;28;20647;-76
2022/09/16 08:21:35;;;;;;;14.07;3.67;;;;;;;-141.28;100.00;48783.91;5092039;28;20290;-75
2022/09/16 08:24:04;;;;;;;16.17;3.37;;;;;;;-141.28;100.00;48764.28;5078518;28;20220;-77
2022/09/16 08:26:31;;;;;;;12.37;3.40;;;;;;;-141.28;100.00;48787.81;5078094;28;20193;-75
2022/09/16 08:28:59;;;;;;;11.90;3.37;;;;;;;-141.28;100.00;48752.50;5079974;28;20199;-78
2022/09/16 08:31:28;;;;;;;10.40;3.23;;;;;;;-141.28;98.77;48679.91;5080672;28;20283;-75
2022/09/16 08:33:55;;;;;;;16.97;3.30;;;;;;;-141.28;99.80;48748.56;5080876;28;20271;-78
2022/09/16 08:36:24;;;;;;;11.97;3.13;;;;;;;-141.28;100.00;48744.66;5076811;28;20200;-77
2022/09/16 08:38:52;;;;;;;13.60;3.30;;;;;;;-141.28;100.00;48760.34;5071982;28;20205;-77
2022/09/16 08:41:47;;;;;;;15.33;3.53;;;;;;;-141.28;100.00;48779.97;5074027;28;20269;-76
2022/09/16 08:44:24;;;;;;;11.73;3.07;;;;;;;-141.28;100.00;48768.19;5067988;28;20220;-76
2022/09/16 08:46:55;;;;;;;14.77;3.27;;;;;;;-141.28;100.00;48797.63;5087519;28;20606;-76
2022/09/16 08:49:40;;;;;;;13.93;2.90;;;;;;;-141.28;100.00;48760.34;5097859;28;20233;-78
2022/09/16 08:52:13;;;;;;;12.57;2.90;;;;;;;-141.28;100.00;48778.00;5100138;28;20191;-77
2022/09/16 08:54:44;;;;;;;9.70;3.40;;;;;;;-141.28;100.00;48795.66;5090939;28;20270;-76
2022/09/16 08:57:16;;;;;;;9.73;3.33;;;;;;;-141.28;100.00;48807.44;5104654;28;20542;-77
2022/09/16 08:59:49;;;;;;;18.83;3.77;;;;;;;-141.28;100.00;48819.22;5078666;28;20244;-75
2022/09/16 09:02:31;;;;;;;12.03;3.20;;;;;;;-141.28;100.00;48807.44;5089943;28;20336;-74
2022/09/16 09:05:01;;;;;;;9.23;3.13;;;;;;;-141.28;100.00;48827.06;5071672;28;20239;-76
2022/09/16 09:07:37;;;;;;;12.93;3.67;;;;;;;-141.28;100.00;48856.47;5085878;28;20192;-76
2022/09/16 09:10:14;;;;;;;18.27;3.70;;;;;;;-141.28;100.00;48856.47;5084785;28;20210;-76
2022/09/16 09:12:49;;;;;;;12.90;3.23;;;;;;;-141.28;100.00;48850.59;5091975;28;20203;-75
2022/09/16 09:15:36;;;;;;;18.33;4.00;;;;;;;-141.28;100.00;48846.69;5109980;28;20334;-76
2022/09/16 09:18:16;;;;;;;14.00;3.43;;;;;;;-141.28;100.00;48887.88;5106085;28;20418;-76
2022/09/16 09:20:53;;;;;;;19.60;3.70;;;;;;;-141.28;100.00;48842.75;5086933;28;20194;-75
2022/09/16 09:23:44;;;;;;;20.83;3.93;;;;;;;-141.28;100.00;48866.28;5077898;28;20265;-77
2022/09/16 09:26:20;;;;;;;10.83;3.50;;;;;;;-141.28;100.00;48901.59;5092265;28;20339;-75
2022/09/16 09:29:05;;;;;;;16.97;4.17;;;;;;;-141.28;100.00;48882.00;5094238;28;20197;-75
2022/09/16 09:31:41;;;;;;;17.30;4.00;;;;;;;-141.28;100.00;48870.22;5085953;28;20687;-75
2022/09/16 09:34:24;;;;;;;14.07;4.10;;;;;;;-141.28;100.00;48832.94;5100116;28;20265;-76
2022/09/16 09:37:06;;;;;;;11.90;3.40;;;;;;;-141.28;100.00;48870.22;5113820;28;20197;-76
2022/09/16 09:39:46;;;;;;;18.77;4.03;;;;;;;-141.28;100.00;48882.00;5085332;28;20203;-75
2022/09/16 09:42:19;;;;;;;13.80;4.53;;;;;;;-141.28;100.00;48870.22;5082071;28;20205;-75
2022/09/16 09:44:58;;;;;;;24.47;4.93;;;;;;;-141.28;100.00;48870.22;5094779;28;20248;-77
2022/09/16 09:47:31;;;;;;;18.10;4.67;;;;;;;-141.28;100.00;48860.41;5096142;28;20221;-75
2022/09/16 09:50:03;;;;;;;14.77;5.07;;;;;;;-141.28;100.00;48872.19;5105612;28;20654;-75
2022/09/16 09:52:38;;;;;;;15.90;5.00;;;;;;;-141.28;100.00;48872.19;5078681;28;20252;-76
2022/09/16 09:55:17;;;;;;;16.97;4.10;;;;;;;-141.28;100.00;48830.97;5074594;28;20211;-76
2022/09/16 09:58:06;;;;;;;21.20;5.57;;;;;;;-141.28;100.00;48897.69;5074792;28;20209;-75
2022/09/16 10:00:36;;;;;;;22.77;4.80;;;;;;;-141.28;100.00;48889.84;5075134;28;20207;-75
2022/09/16 10:03:08;;;;;;;19.03;4.53;;;;;;;-141.28;100.00;48954.59;5074876;28;20661;-74
2022/09/16 10:05:36;;;;;;;18.37;4.60;;;;;;;-141.28;100.00;48968.31;5089291;28;20242;-75
2022/09/16 10:08:18;;;;;;;11.93;4.07;;;;;;;-141.28;100.00;48972.25;5097561;28;20259;-75
2022/09/16 10:10:50;;;;;;;17.90;3.77;;;;;;;-141.28;100.00;48933.00;5094305;28;20210;-79
2022/09/16 10:13:18;;;;;;;17.67;4.13;;;;;;;-141.28;100.00;49211.59;5090453;28;20204;-75
2022/09/16 10:15:48;;;;;;;9.20;3.60;;;;;;;-141.28;100.00;49019.31;5084807;28;20220;-75
2022/09/16 10:18:25;;;;;;;12.73;3.90;;;;;;;-141.28;100.00;49203.75;5108206;28;20261;-75
2022/09/16 10:21:01;;;;;;;19.17;4.13;;;;;;;-141.28;100.00;49244.97;5114842;28;20257;-76
2022/09/16 10:23:28;;;;;;;16.97;3.93;;;;;;;-141.28;100.00;49266.56;5080820;28;20282;-76
2022/09/16 10:26:07;;;;;;;12.73;3.90;;;;;;;-141.28;100.00;49207.69;5094234;28;20228;-76
2022/09/16 10:28:34;;;;;;;16.90;4.37;;;;;;;-141.28;100.00;49109.59;5086286;28;20212;-75
2022/09/16 10:31:06;;;;;;;19.27;4.33;;;;;;;-141.28;100.00;48972.25;5075575;28;20200;-75
2022/09/16 10:33:40;;;;;;;28.43;3.60;;;;;;;-141.28;100.00;49425.50;5077518;28;20203;-76
2022/09/16 10:36:11;;;;;;;26.80;3.90;;;;;;;-141.28;100.00;49655.09;5074823;28;20629;-76
2022/09/16 10:38:40;;;;;;;12.77;3.43;;;;;;;-141.28;100.00;49474.53;5074616;28;20211;-75
2022/09/16 10:41:09;;;;;;;13.93;3.00;;;;;;;-141.28;100.00;49447.06;5087948;28;20656;-77
2022/09/16 10:43:39;;;;;;;15.03;3.00;;;;;;;-141.28;100.00;48866.28;5074608;28;20281;-74
2022/09/16 10:46:15;;;;;;;7.97;2.93;;;;;;;-141.28;100.00;48972.25;5079828;28;20310;-77
2022/09/16 10:48:43;;;;;;;12.77;3.23;;;;;;;-141.28;100.00;49125.28;5107448;28;20649;-75
2022/09/16 10:51:22;;;;;;;7.17;2.20;;;;;;;-141.28;100.00;49294.03;5113755;28;20201;-75
2022/09/16 10:53:54;;;;;;;10.73;2.47;;;;;;;-141.28;100.00;49317.56;5107421;28;20200;-76
2022/09/16 10:56:31;;;;;;;8.23;2.73;;;;;;;-141.28;100.00;49458.84;5073894;28;20200;-75
2022/09/16 10:59:04;;;;;;;6.50;2.50;;;;;;;-141.28;100.00;49653.13;5073860;28;20231;-76
2022/09/16 11:01:44;;;;;;;5.40;2.30;;;;;;;-141.28;100.00;49788.53;5073727;28;20208;-77
2022/09/16 11:04:39;;;;;;;8.57;2.43;;;;;;;-141.28;100.00;49792.44;5074183;28;20246;-76
2022/09/16 11:07:15;;;;;;;6.20;2.20;;;;;;;-141.28;100.00;49839.56;5088567;28;20199;-76
2022/09/16 11:09:50;;;;;;;7.00;1.93;;;;;;;-141.28;100.00;49847.41;5080073;28;20226;-75
2022/09/16 11:12:51;;;;;;;3.63;1.90;;;;;;;-141.28;100.00;49888.63;5092365;28;20223;-76
2022/09/16 11:15:29;;;;;;;6.17;2.40;;;;;;;-141.28;100.00;49884.69;5075506;28;20211;-78
2022/09/16 11:18:14;;;;;;;5.43;2.00;;;;;;;-141.28;100.00;49839.56;5092357;28;20199;-76
2022/09/16 11:21:12;;;;;;;5.17;1.53;;;;;;;-141.28;100.00;49702.19;5102930;28;20622;-74
2022/09/16 11:24:10;;;;;;;5.57;1.80;;;;;;;-141.28;100.00;49607.97;5113018;28;20675;-75
2022/09/16 11:26:45;;;;;;;4.93;1.73;;;;;;;-141.28;100.00;49439.22;5093105;28;20210;-75
2022/09/16 11:29:29;;;;;;;5.17;1.90;;;;;;;-141.28;100.00;49294.03;5106653;28;20202;-76